CheckWX is a tool to help pilots better visualize weather data.  It is not intended as a substitute for an official pre-flight weather briefing.

13:42:12 UTC

KEWR METAR
Newark Liberty International Airport
Newark, New Jersey, USA
Current

51 mins ago

KEWR 051251Z 00000KT 10SM BKN060 BKN150 10/06 A3006 RMK AO2 SLP178 T01000061
Observed
Apr-5 @ 12:51 UTC
Visibility
Flight Rules
VFR
Cloud Levels
  • Broken at 6,000' AGL
  • Broken at 15,000' AGL
Temperature
10°C / 50°F
Dewpoint
C / 43°F
Humidity
76%
Altimeter
30.06" Hg
Pressure
1017.92 hPa
Previous

2 hours ago

KEWR 051151Z 00000KT 10SM BKN050 BKN070 BKN110 09/06 A3005 RMK AO2 SLP176 T00890061 10089 20067 53010
Observed
Apr-5 @ 11:51 UTC
Visibility
Flight Rules
VFR
Cloud Levels
  • Broken at 5,000' AGL
  • Broken at 7,000' AGL
  • Broken at 11,000' AGL
Temperature
C / 48°F
Dewpoint
C / 43°F
Humidity
82%
Altimeter
30.05" Hg
Pressure
1017.62 hPa
Previous

3 hours ago

KEWR 051051Z 00000KT 10SM BKN070 BKN110 08/06 A3004 RMK AO2 SLP170 T00780056
Observed
Apr-5 @ 10:51 UTC
Visibility
Flight Rules
VFR
Cloud Levels
  • Broken at 7,000' AGL
  • Broken at 11,000' AGL
Temperature
C / 46°F
Dewpoint
C / 43°F
Humidity
87%
Altimeter
30.04" Hg
Pressure
1017.32 hPa